Time;durP1;ratioP1;P1;durP2;ratioP2;P2;SDS_P1;SDS_P2;PMS_P1;PMS_P2;Temp;Humidity;BMP_temperature;BMP_pressure;BME280_temperature;BME280_humidity;BME280_pressure;Samples;Min_cycle;Max_cycle;Signal;HPM_P1;HPM_P2
2023/10/20 00:01:56;;;;;;;27.40;11.98;;;;;;;16.19;64.35;97784.84;4371050;32;35183;-70
2023/10/20 00:04:24;;;;;;;23.73;12.85;;;;;;;16.22;64.40;97779.03;4370408;32;34393;-70
2023/10/20 00:06:52;;;;;;;14.30;8.32;;;;;;;16.39;63.88;97782.25;4371174;32;33483;-70
2023/10/20 00:09:19;;;;;;;15.70;10.38;;;;;;;16.29;64.54;97783.44;4369505;32;33992;-70
2023/10/20 00:11:47;;;;;;;25.33;11.90;;;;;;;16.41;64.14;97783.72;4377895;32;34919;-70
2023/10/20 00:14:15;;;;;;;22.37;11.48;;;;;;;16.45;64.05;97779.56;4401012;32;35205;-70
2023/10/20 00:16:43;;;;;;;20.80;11.75;;;;;;;16.31;64.57;97780.56;4402787;32;34978;-71
2023/10/20 00:19:11;;;;;;;22.25;9.70;;;;;;;16.36;64.77;97779.94;4402712;32;34593;-71
2023/10/20 00:21:39;;;;;;;17.80;10.57;;;;;;;16.44;64.48;97777.91;4402326;32;33768;-71
2023/10/20 00:24:07;;;;;;;19.02;10.15;;;;;;;16.56;64.19;97782.72;4402690;32;34895;-70
2023/10/20 00:26:34;;;;;;;19.67;11.32;;;;;;;16.64;63.82;97790.69;4398670;32;33507;-70
2023/10/20 00:29:02;;;;;;;17.17;9.10;;;;;;;16.58;63.84;97784.22;4400307;32;34123;-70
2023/10/20 00:31:30;;;;;;;17.15;8.85;;;;;;;16.48;64.16;97778.34;4402142;32;33854;-70
2023/10/20 00:33:58;;;;;;;19.25;10.40;;;;;;;16.49;64.02;97771.91;4401051;32;33541;-69
2023/10/20 00:36:27;;;;;;;21.37;10.98;;;;;;;16.53;63.90;97768.63;4402397;32;34232;-70
2023/10/20 00:38:55;;;;;;;26.05;13.23;;;;;;;16.56;63.85;97761.13;4392604;32;33684;-70
2023/10/20 00:41:23;;;;;;;18.48;11.88;;;;;;;16.61;63.79;97762.19;4404395;32;34202;-70
2023/10/20 00:43:50;;;;;;;19.80;12.30;;;;;;;16.65;63.66;97755.34;4403647;32;33802;-70
2023/10/20 00:46:18;;;;;;;29.08;15.02;;;;;;;16.64;63.72;97739.38;4399287;32;33784;-73
2023/10/20 00:48:46;;;;;;;18.73;11.45;;;;;;;16.47;64.30;97745.13;4405018;32;32365;-70
2023/10/20 00:51:13;;;;;;;19.30;9.85;;;;;;;16.28;65.01;97737.75;4404459;32;34079;-67
2023/10/20 00:53:41;;;;;;;27.52;13.02;;;;;;;16.20;65.25;97732.50;4397660;32;34151;-69
2023/10/20 00:56:09;;;;;;;16.85;11.07;;;;;;;16.40;64.72;97727.19;4406182;32;34820;-70
2023/10/20 00:58:38;;;;;;;21.35;11.30;;;;;;;16.40;64.77;97719.09;4402757;32;33748;-70
2023/10/20 01:01:06;;;;;;;19.58;10.98;;;;;;;16.20;65.42;97719.00;4393453;32;33814;-70
2023/10/20 01:03:35;;;;;;;26.12;14.63;;;;;;;16.21;65.45;97705.34;4405213;32;34160;-71
2023/10/20 01:06:04;;;;;;;22.52;11.90;;;;;;;16.09;66.36;97706.09;4389990;32;33491;-71
2023/10/20 01:08:31;;;;;;;18.35;10.02;;;;;;;16.28;65.75;97702.66;4392134;32;34401;-71
2023/10/20 01:10:59;;;;;;;23.90;11.65;;;;;;;16.37;65.78;97704.16;4399457;32;34051;-70
2023/10/20 01:13:27;;;;;;;29.85;11.52;;;;;;;16.19;66.59;97691.19;4405470;32;35116;-70
2023/10/20 01:15:54;;;;;;;24.25;12.25;;;;;;;16.35;66.30;97689.19;4400009;32;32893;-70
2023/10/20 01:18:22;;;;;;;20.52;10.13;;;;;;;16.51;65.66;97676.16;4392006;32;33881;-71
2023/10/20 01:20:50;;;;;;;19.30;9.88;;;;;;;16.67;65.55;97683.06;4404846;32;35532;-70
2023/10/20 01:23:18;;;;;;;12.18;7.35;;;;;;;16.62;66.24;97680.12;4405934;32;33902;-70
2023/10/20 01:25:45;;;;;;;15.52;9.13;;;;;;;16.57;66.44;97681.81;4404996;32;34918;-70
2023/10/20 01:28:13;;;;;;;19.20;11.85;;;;;;;16.79;65.68;97677.94;4406459;32;35267;-70
2023/10/20 01:30:41;;;;;;;20.52;11.00;;;;;;;16.70;65.65;97669.16;4405912;32;33777;-70
2023/10/20 01:33:08;;;;;;;22.35;12.07;;;;;;;16.80;65.05;97676.06;4405517;32;33862;-70
2023/10/20 01:35:36;;;;;;;18.55;12.45;;;;;;;16.76;64.76;97664.84;4407146;32;34546;-70
2023/10/20 01:38:04;;;;;;;25.60;12.75;;;;;;;16.77;64.27;97666.50;4406383;32;33602;-70
2023/10/20 01:40:32;;;;;;;20.92;13.52;;;;;;;16.78;64.07;97665.44;4405254;32;33831;-70
2023/10/20 01:42:59;;;;;;;18.60;9.45;;;;;;;16.85;63.83;97660.06;4405991;32;34048;-70
2023/10/20 01:45:27;;;;;;;17.80;9.40;;;;;;;16.84;63.89;97663.81;4405069;32;33791;-71
2023/10/20 01:47:56;;;;;;;25.83;9.35;;;;;;;16.85;63.91;97657.34;4390191;32;33595;-70
2023/10/20 01:50:24;;;;;;;20.50;9.93;;;;;;;16.82;64.22;97653.22;4405460;32;33954;-70
2023/10/20 01:52:53;;;;;;;17.12;9.00;;;;;;;16.85;64.39;97650.06;4406701;32;35278;-70
2023/10/20 01:55:22;;;;;;;24.98;12.70;;;;;;;16.91;64.32;97648.44;4407319;32;33507;-70
2023/10/20 01:57:50;;;;;;;17.67;8.90;;;;;;;16.86;64.60;97651.75;4406640;32;33685;-70
2023/10/20 02:00:18;;;;;;;15.63;10.13;;;;;;;16.74;65.29;97643.38;4405915;32;34164;-70
2023/10/20 02:02:46;;;;;;;19.75;10.50;;;;;;;16.87;64.79;97639.91;4404053;32;33919;-70
2023/10/20 02:05:14;;;;;;;22.83;11.85;;;;;;;16.93;64.81;97633.69;4405258;32;33691;-70
2023/10/20 02:07:42;;;;;;;15.52;9.95;;;;;;;17.03;64.43;97641.38;4405364;32;33682;-70
2023/10/20 02:10:10;;;;;;;16.23;8.93;;;;;;;17.04;64.52;97640.34;4405784;32;33854;-70
2023/10/20 02:12:38;;;;;;;18.23;9.43;;;;;;;17.11;64.49;97633.09;4404914;32;34789;-70
2023/10/20 02:15:07;;;;;;;16.25;9.73;;;;;;;17.09;64.54;97632.44;4404383;32;33283;-70
2023/10/20 02:17:35;;;;;;;16.17;9.73;;;;;;;17.13;64.53;97611.25;4391297;32;33584;-70
2023/10/20 02:20:03;;;;;;;14.23;8.43;;;;;;;17.18;64.44;97616.88;4404046;32;36004;-70
2023/10/20 02:22:31;;;;;;;12.98;8.60;;;;;;;17.18;64.37;97614.16;4405623;32;33591;-70
2023/10/20 02:24:59;;;;;;;11.80;7.78;;;;;;;17.19;64.29;97605.81;4398204;32;34403;-70
2023/10/20 02:27:28;;;;;;;22.37;8.60;;;;;;;17.16;64.46;97605.41;4406648;32;33764;-70
2023/10/20 02:29:58;;;;;;;19.85;9.02;;;;;;;17.18;64.58;97608.75;4363140;32;32960;-70
2023/10/20 02:32:25;;;;;;;17.95;8.60;;;;;;;17.20;64.83;97606.66;4363378;32;34037;-70
2023/10/20 02:34:53;;;;;;;13.18;7.05;;;;;;;17.12;65.88;97606.88;4364150;32;33186;-71
2023/10/20 02:37:21;;;;;;;12.00;5.07;;;;;;;17.04;68.00;97609.78;4374246;32;33290;-70
2023/10/20 02:39:48;;;;;;;11.55;5.65;;;;;;;17.09;68.43;97610.00;4373522;32;33788;-71
2023/10/20 02:42:16;;;;;;;10.98;5.18;;;;;;;17.27;68.25;97612.91;4366674;32;35214;-70
2023/10/20 02:44:44;;;;;;;17.58;5.93;;;;;;;17.37;68.45;97615.19;4371561;32;33071;-70
2023/10/20 02:47:11;;;;;;;15.57;6.35;;;;;;;17.61;67.83;97617.22;4372518;32;33582;-70
2023/10/20 02:49:39;;;;;;;23.20;6.72;;;;;;;17.59;68.35;97619.31;4372868;32;34986;-70
2023/10/20 02:52:07;;;;;;;12.15;6.68;;;;;;;17.69;68.37;97613.47;4363240;32;33619;-70
2023/10/20 02:54:34;;;;;;;5.43;3.95;;;;;;;17.87;67.64;97612.81;4371435;32;34410;-71
2023/10/20 02:57:05;;;;;;;11.70;7.55;;;;;;;17.60;68.19;97612.03;4371852;32;35088;-70
2023/10/20 02:59:32;;;;;;;11.23;6.10;;;;;;;17.68;67.56;97609.91;4369059;32;34954;-70
2023/10/20 03:02:00;;;;;;;9.98;4.75;;;;;;;17.70;67.44;97605.13;4397972;32;34126;-71
2023/10/20 03:04:29;;;;;;;20.37;6.07;;;;;;;17.82;67.38;97593.69;4396991;32;33085;-71
2023/10/20 03:06:56;;;;;;;9.90;5.75;;;;;;;17.80;67.97;97607.41;4389491;32;33846;-71
2023/10/20 03:09:24;;;;;;;11.43;6.22;;;;;;;18.03;67.14;97603.38;4391024;32;35214;-71
2023/10/20 03:11:51;;;;;;;18.75;6.57;;;;;;;18.00;67.33;97612.75;4389199;32;34652;-71
2023/10/20 03:14:19;;;;;;;10.82;6.20;;;;;;;18.18;66.68;97622.06;4390458;32;33339;-71
2023/10/20 03:16:47;;;;;;;14.95;7.45;;;;;;;18.26;66.33;97616.41;4389747;32;34885;-70
2023/10/20 03:19:14;;;;;;;13.93;8.68;;;;;;;18.15;65.75;97613.31;4390798;32;33866;-70
2023/10/20 03:21:42;;;;;;;12.68;7.55;;;;;;;18.22;64.47;97618.72;4388240;32;32830;-71
2023/10/20 03:24:10;;;;;;;12.13;6.95;;;;;;;18.01;64.15;97621.69;4388873;32;34709;-71
2023/10/20 03:26:38;;;;;;;13.62;7.75;;;;;;;17.70;64.49;97618.66;4391983;32;34752;-71
2023/10/20 03:29:07;;;;;;;12.93;7.57;;;;;;;17.57;64.88;97615.97;4390276;32;33905;-71
2023/10/20 03:31:34;;;;;;;10.88;6.22;;;;;;;17.83;64.05;97608.88;4389639;32;33847;-71
2023/10/20 03:34:02;;;;;;;19.80;8.05;;;;;;;17.67;64.69;97610.97;4390193;32;33433;-72
2023/10/20 03:36:30;;;;;;;12.23;6.85;;;;;;;17.83;64.19;97608.88;4389891;32;32459;-71
2023/10/20 03:38:58;;;;;;;9.93;5.95;;;;;;;17.15;66.89;97609.16;4390637;32;34997;-71
2023/10/20 03:41:26;;;;;;;14.55;5.78;;;;;;;17.06;69.08;97619.34;4378363;32;35113;-70
2023/10/20 03:43:54;;;;;;;7.50;4.35;;;;;;;17.19;69.17;97613.94;4387523;32;34706;-70
2023/10/20 03:46:21;;;;;;;13.40;4.95;;;;;;;17.76;67.38;97600.75;4389868;32;34051;-70
2023/10/20 03:48:49;;;;;;;9.73;4.82;;;;;;;17.94;66.99;97589.25;4389374;32;33907;-70
2023/10/20 03:51:18;;;;;;;11.15;5.90;;;;;;;17.90;67.19;97599.69;4389702;32;34181;-73
2023/10/20 03:53:50;;;;;;;11.57;4.80;;;;;;;17.47;69.50;97607.47;4389104;32;33254;-70
2023/10/20 03:56:23;;;;;;;10.25;5.32;;;;;;;17.83;68.46;97608.88;4376699;32;33438;-70
2023/10/20 03:58:51;;;;;;;9.20;5.35;;;;;;;17.87;67.66;97602.81;4389711;32;34065;-70
2023/10/20 04:01:19;;;;;;;11.10;4.10;;;;;;;17.93;67.86;97601.13;4386136;32;34899;-70
2023/10/20 04:03:50;;;;;;;7.80;4.93;;;;;;;18.23;66.81;97592.47;4392270;32;33169;-70
2023/10/20 04:06:19;;;;;;;16.52;5.20;;;;;;;18.40;66.04;97577.37;4398470;32;33467;-70
2023/10/20 04:08:48;;;;;;;9.45;4.18;;;;;;;18.50;65.54;97585.87;4395078;32;33590;-70
2023/10/20 04:11:16;;;;;;;9.80;4.85;;;;;;;18.39;65.75;97579.28;4397486;32;35217;-70
2023/10/20 04:13:44;;;;;;;8.40;3.30;;;;;;;18.35;65.84;97582.59;4391644;32;32988;-70
2023/10/20 04:16:13;;;;;;;7.62;3.78;;;;;;;18.31;66.00;97581.38;4382042;32;33935;-70
2023/10/20 04:18:41;;;;;;;10.93;4.90;;;;;;;18.05;67.50;97583.19;4391322;32;34238;-70
2023/10/20 04:21:11;;;;;;;10.32;3.75;;;;;;;18.50;65.77;97585.03;4390718;32;33962;-70
2023/10/20 04:23:40;;;;;;;18.05;5.45;;;;;;;18.61;65.21;97573.47;4400086;32;34614;-70
2023/10/20 04:26:21;;;;;;;9.45;4.03;;;;;;;18.42;65.78;97572.56;4400248;32;34635;-70
2023/10/20 04:42:55;;;;;;;11.55;4.78;;;;;;;18.84;63.63;97581.91;4387907;32;34983;-70
2023/10/20 04:53:52;;;;;;;23.75;4.95;;;;;;;18.78;61.69;97566.53;4389253;32;34073;-69
2023/10/20 05:03:57;;;;;;;9.43;5.12;;;;;;;18.54;61.96;97573.53;4402359;32;34016;-68
2023/10/20 05:06:55;;;;;;;8.25;4.78;;;;;;;18.53;61.83;97577.31;4403582;32;33611;-68
2023/10/20 05:09:14;;;;;;;14.38;6.05;;;;;;;18.48;62.06;97568.16;4405242;32;33599;-68
2023/10/20 05:11:41;;;;;;;9.80;4.75;;;;;;;18.44;62.16;97580.50;4405192;32;33765;-67
2023/10/20 05:14:09;;;;;;;14.20;6.85;;;;;;;18.37;62.27;97580.53;4404672;32;34967;-68
2023/10/20 05:16:37;;;;;;;13.32;4.82;;;;;;;18.36;62.15;97576.13;4405594;32;33398;-66
2023/10/20 05:19:05;;;;;;;8.90;4.55;;;;;;;18.32;62.03;97561.37;4405233;32;34776;-68
2023/10/20 05:21:38;;;;;;;10.07;4.93;;;;;;;18.26;62.18;97567.66;4403040;32;34052;-70
2023/10/20 05:24:06;;;;;;;8.30;5.00;;;;;;;18.12;62.53;97573.16;4401834;32;34258;-69
2023/10/20 05:26:35;;;;;;;13.68;6.78;;;;;;;18.02;62.95;97569.25;4406128;32;32388;-69
2023/10/20 05:29:03;;;;;;;10.43;6.50;;;;;;;17.98;63.35;97578.81;4405900;32;33739;-71
2023/10/20 05:31:31;;;;;;;10.38;6.18;;;;;;;18.06;63.10;97578.59;4407260;32;34102;-70
2023/10/20 05:33:59;;;;;;;10.85;4.80;;;;;;;18.04;63.38;97578.81;4407066;32;33686;-70
2023/10/20 05:36:26;;;;;;;13.62;5.47;;;;;;;18.00;63.88;97596.50;4408787;32;34258;-70
2023/10/20 05:38:54;;;;;;;8.48;5.28;;;;;;;18.10;63.83;97582.53;4405527;32;33624;-68
2023/10/20 05:41:21;;;;;;;12.32;5.22;;;;;;;18.08;64.21;97579.22;4397504;32;34808;-69
2023/10/20 05:43:52;;;;;;;9.75;4.70;;;;;;;18.09;64.42;97589.00;4403784;32;33863;-68
2023/10/20 05:46:21;;;;;;;12.15;6.22;;;;;;;18.11;64.58;97590.44;4405937;32;33390;-70
2023/10/20 05:48:49;;;;;;;17.50;5.93;;;;;;;18.18;64.49;97590.41;4401992;32;34031;-68
2023/10/20 05:51:16;;;;;;;7.70;4.78;;;;;;;18.20;64.59;97604.53;4398765;32;35765;-68
2023/10/20 05:53:44;;;;;;;11.82;5.55;;;;;;;18.24;64.52;97594.97;4414567;32;33663;-68
2023/10/20 05:56:12;;;;;;;13.93;6.75;;;;;;;18.25;64.59;97593.09;4412823;32;33367;-69
2023/10/20 05:58:40;;;;;;;10.45;5.35;;;;;;;18.25;64.66;97599.31;4407677;32;33806;-68
2023/10/20 06:01:11;;;;;;;11.45;6.37;;;;;;;18.30;64.64;97598.69;4401051;32;34190;-68
2023/10/20 06:03:38;;;;;;;9.80;5.75;;;;;;;18.25;64.66;97595.78;4404479;32;34027;-68
2023/10/20 06:06:06;;;;;;;15.60;8.52;;;;;;;18.34;64.57;97598.03;4402719;32;34474;-68
2023/10/20 06:08:34;;;;;;;13.02;7.37;;;;;;;18.24;64.80;97596.84;4403810;32;33656;-69
2023/10/20 06:11:03;;;;;;;10.80;4.68;;;;;;;18.34;64.41;97592.63;4406801;32;34117;-70
2023/10/20 06:13:32;;;;;;;13.55;5.43;;;;;;;18.34;64.49;97584.50;4403954;32;33952;-69
2023/10/20 06:16:09;;;;;;;24.08;13.27;;;;;;;18.39;64.25;97589.25;4387669;32;34701;-70
2023/10/20 06:18:38;;;;;;;16.10;7.10;;;;;;;18.23;64.88;97585.16;4404381;32;34468;-70
2023/10/20 06:21:13;;;;;;;13.52;7.15;;;;;;;18.26;64.85;97587.44;4391143;32;34947;-71
2023/10/20 06:23:41;;;;;;;16.60;6.70;;;;;;;18.06;65.61;97586.72;4390820;32;34294;-70
2023/10/20 06:26:09;;;;;;;15.57;6.25;;;;;;;18.19;65.30;97591.25;4404861;32;33414;-70
2023/10/20 06:28:37;;;;;;;22.58;7.15;;;;;;;18.01;66.00;97589.22;4404791;32;33439;-69
2023/10/20 06:34:09;;;;;;;13.60;7.03;;;;;;;18.24;65.37;97581.44;4400532;32;34076;-71
2023/10/20 06:36:43;;;;;;;12.55;6.07;;;;;;;17.56;67.67;97589.97;4403227;32;33086;-70
2023/10/20 06:39:13;;;;;;;22.13;6.62;;;;;;;17.98;66.57;97574.25;4406528;32;34015;-71
2023/10/20 06:41:41;;;;;;;7.72;5.25;;;;;;;18.12;66.08;97569.63;4404738;32;33656;-71
2023/10/20 06:44:10;;;;;;;10.77;6.22;;;;;;;18.01;66.69;97564.88;4403609;32;34476;-70
2023/10/20 06:46:37;;;;;;;9.77;4.93;;;;;;;18.16;66.23;97579.78;4404885;32;33559;-71
2023/10/20 06:49:07;;;;;;;15.57;6.22;;;;;;;17.99;66.88;97573.22;4400020;32;34641;-71
2023/10/20 06:51:35;;;;;;;15.57;6.75;;;;;;;18.04;67.38;97565.28;4402327;32;33963;-71
2023/10/20 06:54:03;;;;;;;12.65;6.18;;;;;;;18.07;67.42;97572.13;4405285;32;34166;-71
2023/10/20 06:56:31;;;;;;;13.20;5.85;;;;;;;18.23;67.06;97574.34;4405496;32;34377;-71
2023/10/20 06:58:58;;;;;;;10.68;5.05;;;;;;;18.27;67.00;97581.00;4404810;32;33870;-70
2023/10/20 07:01:26;;;;;;;10.93;6.05;;;;;;;18.20;67.34;97580.19;4400910;32;33713;-70
2023/10/20 07:03:54;;;;;;;13.15;7.72;;;;;;;18.19;67.52;97578.53;4383806;32;34203;-70
2023/10/20 07:06:22;;;;;;;15.07;7.70;;;;;;;18.19;67.57;97577.69;4382792;32;33213;-70
2023/10/20 07:08:50;;;;;;;12.50;5.32;;;;;;;18.03;67.95;97571.72;4384513;32;35075;-70
2023/10/20 07:11:18;;;;;;;14.23;6.65;;;;;;;18.23;67.56;97579.75;4386089;32;34157;-70
2023/10/20 07:13:46;;;;;;;10.20;6.10;;;;;;;18.15;67.91;97582.72;4388480;32;34283;-71
2023/10/20 07:16:13;;;;;;;12.48;6.65;;;;;;;17.86;68.44;97584.91;4385323;32;33444;-70
2023/10/20 07:18:41;;;;;;;9.98;6.03;;;;;;;17.97;68.49;97585.28;4385081;32;33567;-71
2023/10/20 07:21:09;;;;;;;11.93;5.07;;;;;;;18.26;67.67;97584.72;4386087;32;33953;-71
2023/10/20 07:23:36;;;;;;;9.55;4.82;;;;;;;18.32;67.64;97577.63;4383827;32;34028;-71
2023/10/20 07:26:05;;;;;;;11.88;5.55;;;;;;;18.38;67.51;97584.87;4383881;32;33463;-71
2023/10/20 07:28:33;;;;;;;11.93;5.85;;;;;;;18.51;67.04;97583.97;4388103;32;33780;-71
2023/10/20 07:31:12;;;;;;;11.38;5.25;;;;;;;18.53;67.05;97590.03;4388328;32;35136;-73
2023/10/20 07:33:40;;;;;;;9.38;5.18;;;;;;;18.64;66.78;97589.31;4379984;32;33757;-69
2023/10/20 07:36:08;;;;;;;18.90;7.00;;;;;;;18.76;66.48;97598.44;4382889;32;33182;-69
2023/10/20 07:38:37;;;;;;;12.10;6.35;;;;;;;18.76;66.74;97574.03;4384727;32;32217;-69
2023/10/20 07:41:06;;;;;;;14.73;5.20;;;;;;;18.82;66.73;97586.72;4392579;32;35104;-69
2023/10/20 07:43:34;;;;;;;15.35;7.15;;;;;;;18.81;66.91;97573.38;4404145;32;33833;-69
2023/10/20 07:46:02;;;;;;;14.20;5.53;;;;;;;18.87;66.81;97575.19;4405962;32;34096;-69
2023/10/20 07:48:34;;;;;;;17.08;8.18;;;;;;;18.90;67.03;97582.06;4405342;32;34492;-69
2023/10/20 07:51:03;;;;;;;19.45;7.68;;;;;;;18.97;66.79;97580.97;4407538;32;35220;-69
2023/10/20 07:53:31;;;;;;;16.67;5.32;;;;;;;19.10;66.50;97569.19;4405388;32;34197;-68
2023/10/20 07:55:58;;;;;;;12.63;6.68;;;;;;;19.08;66.73;97574.00;4404496;32;33307;-68
2023/10/20 07:58:26;;;;;;;10.15;5.32;;;;;;;19.05;66.92;97569.84;4402795;32;35320;-70
2023/10/20 08:00:54;;;;;;;11.93;5.30;;;;;;;18.92;67.41;97561.81;4405922;32;33944;-71
2023/10/20 08:03:23;;;;;;;11.50;7.43;;;;;;;19.03;66.92;97562.97;4403572;32;33430;-70
2023/10/20 08:05:51;;;;;;;13.27;6.85;;;;;;;18.77;67.43;97559.44;4404427;32;34364;-71
2023/10/20 08:08:19;;;;;;;16.95;7.93;;;;;;;19.02;67.02;97559.44;4405619;32;33624;-70
2023/10/20 08:10:47;;;;;;;17.08;8.98;;;;;;;19.08;66.91;97560.44;4404531;32;34953;-70
2023/10/20 08:13:16;;;;;;;21.27;7.30;;;;;;;19.16;66.63;97560.16;4403800;32;33433;-70
2023/10/20 08:15:44;;;;;;;23.20;5.97;;;;;;;19.30;66.20;97545.44;4404012;32;34283;-71
2023/10/20 08:18:12;;;;;;;14.43;5.90;;;;;;;19.20;66.44;97544.28;4404081;32;34662;-70
2023/10/20 08:20:40;;;;;;;14.27;7.65;;;;;;;19.16;66.72;97535.75;4403925;32;34977;-69
2023/10/20 08:23:08;;;;;;;17.37;6.15;;;;;;;19.24;66.43;97540.06;4402659;32;35369;-70
2023/10/20 08:25:37;;;;;;;9.90;5.57;;;;;;;19.25;66.51;97547.97;4402670;32;33923;-70
2023/10/20 08:28:05;;;;;;;15.30;8.18;;;;;;;19.22;66.72;97561.97;4381289;32;33915;-71
2023/10/20 08:30:33;;;;;;;17.75;8.68;;;;;;;19.47;65.99;97555.69;4386288;32;33396;-69
2023/10/20 08:33:03;;;;;;;22.85;6.25;;;;;;;19.34;66.21;97558.53;4387637;32;33808;-68
2023/10/20 08:35:31;;;;;;;11.02;6.75;;;;;;;18.98;67.19;97552.00;4383507;32;33705;-69
2023/10/20 08:37:58;;;;;;;9.32;4.78;;;;;;;19.01;67.32;97575.94;4386747;32;33977;-69
2023/10/20 08:40:35;;;;;;;15.77;5.75;;;;;;;18.80;67.90;97564.41;4385790;32;34197;-69
2023/10/20 08:43:23;;;;;;;11.65;4.97;;;;;;;18.89;67.16;97562.28;4388775;32;34839;-69
2023/10/20 08:45:51;;;;;;;12.23;6.50;;;;;;;19.21;66.28;97573.88;4386303;32;33731;-69
2023/10/20 08:48:19;;;;;;;12.37;5.03;;;;;;;19.23;66.17;97582.63;4381141;32;33637;-69
2023/10/20 08:50:48;;;;;;;17.77;4.87;;;;;;;19.74;64.31;97580.66;4388372;32;33813;-69
2023/10/20 08:53:18;;;;;;;15.88;6.28;;;;;;;19.89;64.06;97570.28;4371092;32;33794;-69
2023/10/20 08:55:47;;;;;;;9.60;4.50;;;;;;;19.65;64.59;97569.31;4373343;32;33427;-69
2023/10/20 08:58:15;;;;;;;12.13;3.87;;;;;;;19.54;65.23;97570.81;4385303;32;33278;-69
2023/10/20 09:00:43;;;;;;;12.07;6.18;;;;;;;19.61;65.07;97576.19;4401478;32;33902;-68
2023/10/20 09:03:37;;;;;;;23.30;5.95;;;;;;;19.47;65.28;97572.78;4399883;32;34061;-69
2023/10/20 09:06:07;;;;;;;17.02;4.87;;;;;;;19.55;64.67;97564.38;4404043;32;33285;-69
2023/10/20 09:08:34;;;;;;;7.87;4.12;;;;;;;19.58;64.26;97570.37;4401449;32;33766;-69
2023/10/20 09:11:06;;;;;;;11.52;4.40;;;;;;;19.44;64.42;97581.38;4401308;32;33806;-69
2023/10/20 09:13:37;;;;;;;9.93;5.22;;;;;;;19.94;63.23;97575.03;4398588;32;34113;-69
2023/10/20 09:16:07;;;;;;;10.10;5.28;;;;;;;19.35;64.15;97568.31;4398586;32;33473;-68
2023/10/20 09:18:50;;;;;;;8.95;4.20;;;;;;;20.03;62.21;97573.62;4404726;32;33538;-69
2023/10/20 09:21:24;;;;;;;9.18;3.80;;;;;;;19.99;62.00;97573.28;4395698;32;35719;-69
2023/10/20 09:24:11;;;;;;;7.05;4.00;;;;;;;19.99;61.99;97565.12;4402513;32;34906;-69
2023/10/20 09:26:39;;;;;;;13.15;5.50;;;;;;;20.06;61.61;97551.47;4398508;32;33154;-69
2023/10/20 09:29:07;;;;;;;15.40;5.10;;;;;;;20.37;61.35;97553.13;4403592;32;32588;-69
2023/10/20 09:31:37;;;;;;;7.95;4.30;;;;;;;20.60;60.53;97555.13;4400938;32;33633;-69
2023/10/20 09:34:06;;;;;;;9.57;3.80;;;;;;;20.63;60.70;97560.09;4402059;32;33977;-69
2023/10/20 09:36:35;;;;;;;15.23;3.97;;;;;;;20.46;60.91;97557.19;4404573;32;31847;-69
2023/10/20 09:39:08;;;;;;;18.70;5.28;;;;;;;20.10;61.02;97547.25;4400011;32;34985;-68
2023/10/20 09:41:42;;;;;;;8.23;4.12;;;;;;;20.22;60.66;97550.84;4397013;32;34142;-70
2023/10/20 09:44:13;;;;;;;16.08;4.90;;;;;;;20.92;59.14;97542.06;4403632;32;34834;-68
2023/10/20 09:46:54;;;;;;;13.88;3.85;;;;;;;21.36;57.95;97539.06;4394415;32;33415;-69
2023/10/20 09:49:26;;;;;;;18.58;5.68;;;;;;;21.15;57.94;97538.56;4369001;32;34813;-70
2023/10/20 09:51:56;;;;;;;12.37;6.20;;;;;;;21.37;58.33;97538.81;4357594;32;32885;-70
2023/10/20 09:54:31;;;;;;;13.52;4.15;;;;;;;21.55;57.60;97543.31;4326570;33;34140;-69
2023/10/20 09:57:00;;;;;;;13.45;6.03;;;;;;;21.38;57.15;97536.94;4318395;33;34823;-70
2023/10/20 09:59:28;;;;;;;13.38;4.15;;;;;;;21.34;56.92;97527.53;4310459;33;33627;-70
2023/10/20 10:01:57;;;;;;;16.52;5.97;;;;;;;21.42;56.98;97531.84;4306984;33;34343;-70
2023/10/20 10:04:28;;;;;;;12.85;6.60;;;;;;;21.15;57.97;97532.28;4301795;33;34729;-70
2023/10/20 10:07:03;;;;;;;12.07;5.35;;;;;;;21.83;56.42;97523.50;4315087;33;34016;-71
2023/10/20 10:09:40;;;;;;;10.93;4.15;;;;;;;21.93;56.02;97503.00;4276226;33;33140;-70
2023/10/20 10:12:09;;;;;;;17.60;5.40;;;;;;;21.94;55.82;97491.84;4309933;33;35268;-70
2023/10/20 10:14:37;;;;;;;11.90;4.80;;;;;;;22.07;55.27;97494.28;4298010;33;35523;-70
2023/10/20 10:17:09;;;;;;;12.23;4.20;;;;;;;21.78;56.09;97508.94;4307504;33;33494;-71
2023/10/20 10:19:49;;;;;;;8.77;3.40;;;;;;;21.54;56.44;97524.47;4313954;33;34094;-71
2023/10/20 10:22:22;;;;;;;12.98;4.70;;;;;;;21.84;55.27;97536.03;4318102;33;34943;-71
2023/10/20 10:24:54;;;;;;;11.25;4.93;;;;;;;22.23;54.61;97533.56;4342451;32;33907;-71
2023/10/20 10:27:28;;;;;;;14.77;5.22;;;;;;;21.93;54.89;97535.66;4327016;33;33307;-71
2023/10/20 10:29:59;;;;;;;9.40;3.80;;;;;;;22.42;53.87;97528.75;4348296;32;33606;-71
2023/10/20 10:32:31;;;;;;;10.18;4.43;;;;;;;22.77;53.32;97527.72;4377760;32;33790;-71
2023/10/20 10:35:00;;;;;;;12.63;5.03;;;;;;;22.84;52.54;97536.56;4390779;32;34493;-71
2023/10/20 10:37:35;;;;;;;12.07;3.08;;;;;;;22.71;52.76;97529.53;4388026;32;34523;-71
2023/10/20 10:40:07;;;;;;;12.30;3.62;;;;;;;22.90;51.91;97542.94;4370012;32;33359;-71
2023/10/20 10:42:45;;;;;;;13.23;4.25;;;;;;;22.76;52.68;97529.63;4372016;32;33954;-71
2023/10/20 10:45:21;;;;;;;13.90;4.70;;;;;;;23.12;51.98;97532.97;4371533;32;34831;-71
2023/10/20 10:48:10;;;;;;;15.18;4.82;;;;;;;23.42;51.52;97516.19;4369082;32;34203;-71
2023/10/20 10:50:40;;;;;;;9.30;4.32;;;;;;;23.07;51.35;97516.50;4370344;32;33893;-72
2023/10/20 10:53:10;;;;;;;15.45;4.95;;;;;;;23.07;51.43;97511.03;4371875;32;33506;-72
2023/10/20 10:55:37;;;;;;;10.52;4.15;;;;;;;23.53;50.75;97508.16;4356053;32;33854;-71
2023/10/20 10:58:10;;;;;;;12.50;4.03;;;;;;;23.67;50.93;97501.25;4358080;32;33392;-71
2023/10/20 11:00:39;;;;;;;13.02;4.18;;;;;;;23.67;50.41;97498.53;4355703;32;33311;-71
2023/10/20 11:03:07;;;;;;;8.15;4.20;;;;;;;23.82;50.64;97495.16;4353342;32;34947;-71
2023/10/20 11:05:35;;;;;;;10.90;4.45;;;;;;;23.79;50.70;97484.75;4357524;32;35296;-71
2023/10/20 11:08:08;;;;;;;13.55;5.25;;;;;;;23.47;51.56;97474.50;4365214;32;34610;-71
2023/10/20 11:10:37;;;;;;;12.00;5.20;;;;;;;23.77;50.40;97468.63;4362539;32;35013;-72
2023/10/20 11:13:07;;;;;;;8.15;3.55;;;;;;;23.49;50.88;97458.69;4362235;32;35048;-72
2023/10/20 11:15:35;;;;;;;11.95;4.22;;;;;;;23.55;50.72;97463.13;4331980;32;33937;-72
2023/10/20 11:18:04;;;;;;;13.23;4.47;;;;;;;23.53;51.02;97445.34;4340555;33;33411;-71
2023/10/20 11:20:36;;;;;;;16.48;4.32;;;;;;;23.83;50.55;97437.56;4341065;32;35272;-71
2023/10/20 11:23:07;;;;;;;10.85;3.53;;;;;;;23.90;50.28;97424.53;4326757;33;33682;-71
2023/10/20 11:25:36;;;;;;;12.35;3.45;;;;;;;23.78;51.45;97429.31;4311410;33;33588;-71
2023/10/20 11:28:04;;;;;;;7.62;4.12;;;;;;;24.07;50.87;97431.81;4310436;33;33430;-71
2023/10/20 11:30:35;;;;;;;7.85;4.07;;;;;;;24.34;49.86;97426.34;4310644;33;33531;-71
2023/10/20 11:33:05;;;;;;;11.73;3.45;;;;;;;23.97;50.69;97448.91;4311397;33;33777;-71
2023/10/20 11:35:33;;;;;;;14.52;3.83;;;;;;;23.87;44.87;97430.50;4307605;33;34059;-71
2023/10/20 11:38:01;;;;;;;9.50;3.85;;;;;;;24.11;41.55;97425.59;4311925;33;33350;-70
2023/10/20 11:40:30;;;;;;;22.85;3.20;;;;;;;24.31;40.26;97416.75;4316725;33;33269;-70
2023/10/20 11:42:58;;;;;;;11.68;3.65;;;;;;;24.63;39.59;97413.22;4315124;33;35165;-70
2023/10/20 11:45:25;;;;;;;18.62;3.97;;;;;;;24.84;39.86;97428.66;4311078;33;35751;-70
2023/10/20 11:47:53;;;;;;;9.95;3.70;;;;;;;24.86;39.13;97428.41;4330628;32;34582;-70
2023/10/20 11:50:23;;;;;;;17.80;3.83;;;;;;;25.07;39.34;97427.47;4332243;33;33741;-70
2023/10/20 11:52:51;;;;;;;11.40;3.80;;;;;;;25.19;38.49;97424.53;4331516;32;34207;-70
2023/10/20 11:55:19;;;;;;;9.32;3.35;;;;;;;25.10;38.26;97426.09;4347224;32;33436;-69
2023/10/20 11:57:46;;;;;;;13.40;2.90;;;;;;;25.19;37.55;97413.59;4386191;32;33095;-70
2023/10/20 12:00:14;;;;;;;10.35;3.62;;;;;;;25.44;37.54;97410.16;4388033;32;35442;-69
2023/10/20 12:02:43;;;;;;;21.92;4.05;;;;;;;25.50;38.11;97411.00;4383759;32;34081;-70
2023/10/20 12:05:11;;;;;;;15.95;3.50;;;;;;;25.30;37.84;97411.75;4385144;32;33843;-70
2023/10/20 12:07:39;;;;;;;10.80;3.60;;;;;;;25.32;37.68;97415.84;4385977;32;32547;-70
2023/10/20 12:10:07;;;;;;;15.70;3.90;;;;;;;25.42;37.08;97412.34;4382268;32;33641;-70